Terminal Aerodrome Forecast
Issued by NWS Medford, OR

Home | Current Version | Previous Version | Text Only | Print | Product List | Glossary On
Versions: 1 2 3 4 5 6 7 8 9 10 11 12 13 14
000
FTUS46 KMFR 230500
TAFMFR
TAF
KMFR 230528Z 2306/2406 33004KT P6SM VCSH SCT030 BKN050
     FM230900 11003KT P6SM -SHRA SCT015 BKN040
     FM231400 12003KT P6SM SCT040 BKN080
     FM232200 28008KT 6SM -RA BR SCT020 OVC035=

USA.gov is the U.S. government's official web portal to all federal, state and local government web resources and services.